sensor_id;sensor_type;location;lat;lon;timestamp;P1;durP1;ratioP1;P2;durP2;ratioP2
22415;SDS011;12204;50.600;4.608;2023-03-14T00:02:19;3.47;;;1.35;;
22415;SDS011;12204;50.600;4.608;2023-03-14T00:07:24;3.80;;;1.40;;
22415;SDS011;12204;50.600;4.608;2023-03-14T00:12:27;4.15;;;1.35;;
22415;SDS011;12204;50.600;4.608;2023-03-14T00:17:31;4.32;;;1.42;;
22415;SDS011;12204;50.600;4.608;2023-03-14T00:22:36;4.05;;;1.25;;
22415;SDS011;12204;50.600;4.608;2023-03-14T00:27:41;3.78;;;1.50;;
22415;SDS011;12204;50.600;4.608;2023-03-14T00:32:47;5.20;;;1.48;;
22415;SDS011;12204;50.600;4.608;2023-03-14T00:37:52;3.97;;;1.30;;
22415;SDS011;12204;50.600;4.608;2023-03-14T00:42:55;4.00;;;1.20;;
22415;SDS011;12204;50.600;4.608;2023-03-14T00:48:00;4.25;;;1.33;;
22415;SDS011;12204;50.600;4.608;2023-03-14T00:55:10;3.60;;;1.20;;
22415;SDS011;12204;50.600;4.608;2023-03-14T01:00:14;4.28;;;1.20;;
22415;SDS011;12204;50.600;4.608;2023-03-14T01:05:18;3.85;;;1.20;;
22415;SDS011;12204;50.600;4.608;2023-03-14T01:10:23;3.28;;;1.10;;
22415;SDS011;12204;50.600;4.608;2023-03-14T01:15:27;4.80;;;1.45;;
22415;SDS011;12204;50.600;4.608;2023-03-14T01:20:31;3.90;;;1.42;;
22415;SDS011;12204;50.600;4.608;2023-03-14T01:25:40;3.92;;;1.30;;
22415;SDS011;12204;50.600;4.608;2023-03-14T01:30:44;4.00;;;1.30;;
22415;SDS011;12204;50.600;4.608;2023-03-14T01:35:49;3.60;;;1.20;;
22415;SDS011;12204;50.600;4.608;2023-03-14T01:40:54;4.47;;;1.48;;
22415;SDS011;12204;50.600;4.608;2023-03-14T01:51:40;3.55;;;1.27;;
22415;SDS011;12204;50.600;4.608;2023-03-14T01:56:54;4.28;;;1.30;;
22415;SDS011;12204;50.600;4.608;2023-03-14T02:02:06;4.10;;;1.40;;
22415;SDS011;12204;50.600;4.608;2023-03-14T02:07:14;3.00;;;1.20;;
22415;SDS011;12204;50.600;4.608;2023-03-14T02:12:38;4.10;;;1.45;;
22415;SDS011;12204;50.600;4.608;2023-03-14T02:17:47;3.20;;;1.10;;
22415;SDS011;12204;50.600;4.608;2023-03-14T02:22:58;4.03;;;1.42;;
22415;SDS011;12204;50.600;4.608;2023-03-14T02:28:05;4.40;;;1.38;;
22415;SDS011;12204;50.600;4.608;2023-03-14T02:33:11;3.55;;;1.10;;
22415;SDS011;12204;50.600;4.608;2023-03-14T02:38:20;3.80;;;1.30;;
22415;SDS011;12204;50.600;4.608;2023-03-14T02:43:31;2.58;;;1.20;;
22415;SDS011;12204;50.600;4.608;2023-03-14T02:48:38;3.25;;;1.13;;
22415;SDS011;12204;50.600;4.608;2023-03-14T02:53:47;3.20;;;1.10;;
22415;SDS011;12204;50.600;4.608;2023-03-14T02:58:52;4.15;;;1.20;;
22415;SDS011;12204;50.600;4.608;2023-03-14T03:04:09;3.60;;;1.30;;
22415;SDS011;12204;50.600;4.608;2023-03-14T03:09:13;3.28;;;1.10;;
22415;SDS011;12204;50.600;4.608;2023-03-14T03:14:18;3.65;;;1.23;;
22415;SDS011;12204;50.600;4.608;2023-03-14T03:19:21;2.97;;;1.17;;
22415;SDS011;12204;50.600;4.608;2023-03-14T03:24:25;3.97;;;1.50;;
22415;SDS011;12204;50.600;4.608;2023-03-14T03:29:30;2.45;;;1.05;;
22415;SDS011;12204;50.600;4.608;2023-03-14T03:34:35;3.63;;;1.20;;
22415;SDS011;12204;50.600;4.608;2023-03-14T03:39:40;4.18;;;1.20;;
22415;SDS011;12204;50.600;4.608;2023-03-14T03:44:47;4.30;;;1.27;;
22415;SDS011;12204;50.600;4.608;2023-03-14T03:49:52;3.40;;;1.10;;
22415;SDS011;12204;50.600;4.608;2023-03-14T03:54:55;2.75;;;1.10;;
22415;SDS011;12204;50.600;4.608;2023-03-14T04:00:04;3.60;;;1.23;;
22415;SDS011;12204;50.600;4.608;2023-03-14T04:05:16;2.97;;;1.10;;
22415;SDS011;12204;50.600;4.608;2023-03-14T04:10:29;3.50;;;1.10;;
22415;SDS011;12204;50.600;4.608;2023-03-14T04:15:41;2.83;;;1.00;;
22415;SDS011;12204;50.600;4.608;2023-03-14T04:20:53;4.93;;;1.33;;
22415;SDS011;12204;50.600;4.608;2023-03-14T04:26:10;3.22;;;1.10;;
22415;SDS011;12204;50.600;4.608;2023-03-14T04:31:16;3.17;;;1.15;;
22415;SDS011;12204;50.600;4.608;2023-03-14T04:36:24;3.88;;;1.10;;
22415;SDS011;12204;50.600;4.608;2023-03-14T04:41:28;3.45;;;1.10;;
22415;SDS011;12204;50.600;4.608;2023-03-14T04:46:33;2.80;;;1.00;;
22415;SDS011;12204;50.600;4.608;2023-03-14T04:51:40;2.47;;;0.95;;
22415;SDS011;12204;50.600;4.608;2023-03-14T04:56:44;3.38;;;1.15;;
22415;SDS011;12204;50.600;4.608;2023-03-14T05:01:49;3.05;;;1.08;;
22415;SDS011;12204;50.600;4.608;2023-03-14T05:07:19;3.75;;;1.20;;
22415;SDS011;12204;50.600;4.608;2023-03-14T05:12:46;3.22;;;1.00;;
22415;SDS011;12204;50.600;4.608;2023-03-14T05:18:11;2.45;;;0.93;;
22415;SDS011;12204;50.600;4.608;2023-03-14T05:23:30;1.98;;;0.90;;
22415;SDS011;12204;50.600;4.608;2023-03-14T05:28:56;2.83;;;0.98;;
22415;SDS011;12204;50.600;4.608;2023-03-14T05:34:41;3.47;;;0.93;;
22415;SDS011;12204;50.600;4.608;2023-03-14T05:40:21;2.70;;;1.00;;
22415;SDS011;12204;50.600;4.608;2023-03-14T05:46:11;2.75;;;1.08;;
22415;SDS011;12204;50.600;4.608;2023-03-14T05:51:28;2.42;;;0.80;;
22415;SDS011;12204;50.600;4.608;2023-03-14T05:56:57;2.90;;;1.00;;
22415;SDS011;12204;50.600;4.608;2023-03-14T06:02:30;3.22;;;1.00;;
22415;SDS011;12204;50.600;4.608;2023-03-14T06:07:43;3.17;;;1.10;;
22415;SDS011;12204;50.600;4.608;2023-03-14T06:12:48;2.95;;;1.00;;
22415;SDS011;12204;50.600;4.608;2023-03-14T06:17:53;2.92;;;1.00;;
22415;SDS011;12204;50.600;4.608;2023-03-14T06:23:00;1.90;;;1.00;;
22415;SDS011;12204;50.600;4.608;2023-03-14T06:28:04;2.63;;;1.13;;
22415;SDS011;12204;50.600;4.608;2023-03-14T06:33:09;2.60;;;0.73;;
22415;SDS011;12204;50.600;4.608;2023-03-14T06:38:16;2.13;;;0.90;;
22415;SDS011;12204;50.600;4.608;2023-03-14T06:43:21;2.72;;;1.00;;
22415;SDS011;12204;50.600;4.608;2023-03-14T06:48:26;3.03;;;0.90;;
22415;SDS011;12204;50.600;4.608;2023-03-14T06:53:31;2.92;;;1.00;;
22415;SDS011;12204;50.600;4.608;2023-03-14T06:58:36;3.20;;;1.00;;
22415;SDS011;12204;50.600;4.608;2023-03-14T07:03:43;2.92;;;1.00;;
22415;SDS011;12204;50.600;4.608;2023-03-14T07:08:49;3.20;;;1.30;;
22415;SDS011;12204;50.600;4.608;2023-03-14T07:13:53;2.38;;;0.90;;
22415;SDS011;12204;50.600;4.608;2023-03-14T07:18:56;2.72;;;1.00;;
22415;SDS011;12204;50.600;4.608;2023-03-14T07:24:02;3.17;;;1.13;;
22415;SDS011;12204;50.600;4.608;2023-03-14T07:29:06;2.17;;;0.65;;
22415;SDS011;12204;50.600;4.608;2023-03-14T07:34:11;2.63;;;1.02;;
22415;SDS011;12204;50.600;4.608;2023-03-14T07:39:19;2.15;;;0.88;;
22415;SDS011;12204;50.600;4.608;2023-03-14T07:44:40;2.15;;;0.80;;
22415;SDS011;12204;50.600;4.608;2023-03-14T07:49:44;2.38;;;0.80;;
22415;SDS011;12204;50.600;4.608;2023-03-14T07:54:49;2.50;;;0.90;;
22415;SDS011;12204;50.600;4.608;2023-03-14T07:59:52;1.88;;;0.70;;
22415;SDS011;12204;50.600;4.608;2023-03-14T08:04:56;2.38;;;0.80;;
22415;SDS011;12204;50.600;4.608;2023-03-14T08:10:00;2.42;;;0.85;;
22415;SDS011;12204;50.600;4.608;2023-03-14T08:15:05;2.30;;;0.80;;
22415;SDS011;12204;50.600;4.608;2023-03-14T08:20:10;1.85;;;0.70;;
22415;SDS011;12204;50.600;4.608;2023-03-14T08:25:16;2.58;;;0.73;;
22415;SDS011;12204;50.600;4.608;2023-03-14T08:30:20;2.63;;;0.93;;
22415;SDS011;12204;50.600;4.608;2023-03-14T08:35:26;2.25;;;0.70;;
22415;SDS011;12204;50.600;4.608;2023-03-14T08:40:31;2.80;;;0.73;;
22415;SDS011;12204;50.600;4.608;2023-03-14T08:45:35;1.70;;;0.73;;
22415;SDS011;12204;50.600;4.608;2023-03-14T08:50:38;1.70;;;0.70;;
22415;SDS011;12204;50.600;4.608;2023-03-14T08:55:43;2.67;;;0.70;;
22415;SDS011;12204;50.600;4.608;2023-03-14T09:00:47;2.20;;;0.70;;
22415;SDS011;12204;50.600;4.608;2023-03-14T09:05:50;3.05;;;0.80;;
22415;SDS011;12204;50.600;4.608;2023-03-14T09:10:56;3.00;;;0.80;;
22415;SDS011;12204;50.600;4.608;2023-03-14T09:15:59;2.63;;;0.90;;
22415;SDS011;12204;50.600;4.608;2023-03-14T09:21:03;2.50;;;0.73;;
22415;SDS011;12204;50.600;4.608;2023-03-14T09:26:08;1.85;;;0.70;;
22415;SDS011;12204;50.600;4.608;2023-03-14T09:31:13;2.92;;;0.77;;
22415;SDS011;12204;50.600;4.608;2023-03-14T09:36:17;1.77;;;0.70;;
22415;SDS011;12204;50.600;4.608;2023-03-14T09:41:23;2.83;;;0.70;;
22415;SDS011;12204;50.600;4.608;2023-03-14T09:46:30;2.92;;;0.80;;
22415;SDS011;12204;50.600;4.608;2023-03-14T09:51:37;3.40;;;0.90;;
22415;SDS011;12204;50.600;4.608;2023-03-14T09:56:46;3.40;;;0.80;;
22415;SDS011;12204;50.600;4.608;2023-03-14T10:01:49;3.25;;;0.80;;
22415;SDS011;12204;50.600;4.608;2023-03-14T10:06:53;2.10;;;0.70;;
22415;SDS011;12204;50.600;4.608;2023-03-14T10:11:58;2.50;;;0.73;;
22415;SDS011;12204;50.600;4.608;2023-03-14T10:17:06;3.17;;;0.80;;
22415;SDS011;12204;50.600;4.608;2023-03-14T10:22:13;2.55;;;0.70;;
22415;SDS011;12204;50.600;4.608;2023-03-14T10:27:19;1.88;;;0.63;;
22415;SDS011;12204;50.600;4.608;2023-03-14T10:32:32;2.55;;;0.77;;
22415;SDS011;12204;50.600;4.608;2023-03-14T10:37:47;2.85;;;0.90;;
22415;SDS011;12204;50.600;4.608;2023-03-14T10:42:57;2.30;;;0.75;;
22415;SDS011;12204;50.600;4.608;2023-03-14T10:48:06;3.08;;;0.80;;
22415;SDS011;12204;50.600;4.608;2023-03-14T10:53:23;3.75;;;0.90;;
22415;SDS011;12204;50.600;4.608;2023-03-14T10:58:29;2.53;;;0.70;;
22415;SDS011;12204;50.600;4.608;2023-03-14T11:03:38;2.60;;;0.75;;
22415;SDS011;12204;50.600;4.608;2023-03-14T11:08:52;2.75;;;0.70;;
22415;SDS011;12204;50.600;4.608;2023-03-14T11:14:11;3.40;;;0.80;;
22415;SDS011;12204;50.600;4.608;2023-03-14T11:25:09;3.60;;;0.80;;
22415;SDS011;12204;50.600;4.608;2023-03-14T11:30:26;2.05;;;0.70;;
22415;SDS011;12204;50.600;4.608;2023-03-14T11:35:40;3.40;;;0.80;;
22415;SDS011;12204;50.600;4.608;2023-03-14T11:40:51;2.58;;;0.90;;
22415;SDS011;12204;50.600;4.608;2023-03-14T11:46:03;3.13;;;0.80;;
22415;SDS011;12204;50.600;4.608;2023-03-14T11:51:13;3.33;;;0.75;;
22415;SDS011;12204;50.600;4.608;2023-03-14T11:56:27;2.35;;;0.80;;
22415;SDS011;12204;50.600;4.608;2023-03-14T12:01:44;2.47;;;0.70;;
22415;SDS011;12204;50.600;4.608;2023-03-14T12:06:57;2.47;;;0.80;;
22415;SDS011;12204;50.600;4.608;2023-03-14T12:12:10;3.03;;;0.80;;
22415;SDS011;12204;50.600;4.608;2023-03-14T12:17:21;2.72;;;0.85;;
22415;SDS011;12204;50.600;4.608;2023-03-14T12:22:30;3.90;;;0.80;;
22415;SDS011;12204;50.600;4.608;2023-03-14T12:27:41;3.67;;;0.88;;
22415;SDS011;12204;50.600;4.608;2023-03-14T12:33:18;2.95;;;0.68;;
22415;SDS011;12204;50.600;4.608;2023-03-14T12:38:43;2.05;;;0.70;;
22415;SDS011;12204;50.600;4.608;2023-03-14T12:49:51;3.22;;;0.80;;
22415;SDS011;12204;50.600;4.608;2023-03-14T12:54:58;3.05;;;0.77;;
22415;SDS011;12204;50.600;4.608;2023-03-14T13:00:16;4.13;;;0.95;;
22415;SDS011;12204;50.600;4.608;2023-03-14T13:05:25;4.10;;;0.70;;
22415;SDS011;12204;50.600;4.608;2023-03-14T13:10:29;2.90;;;0.73;;
22415;SDS011;12204;50.600;4.608;2023-03-14T13:15:40;2.22;;;0.70;;
22415;SDS011;12204;50.600;4.608;2023-03-14T13:20:48;3.40;;;0.80;;
22415;SDS011;12204;50.600;4.608;2023-03-14T13:25:56;1.88;;;0.60;;
22415;SDS011;12204;50.600;4.608;2023-03-14T13:31:04;2.65;;;0.70;;
22415;SDS011;12204;50.600;4.608;2023-03-14T13:36:10;1.88;;;0.65;;
22415;SDS011;12204;50.600;4.608;2023-03-14T13:41:13;2.10;;;0.68;;
22415;SDS011;12204;50.600;4.608;2023-03-14T13:46:17;1.85;;;0.70;;
22415;SDS011;12204;50.600;4.608;2023-03-14T13:51:28;2.38;;;0.70;;
22415;SDS011;12204;50.600;4.608;2023-03-14T13:56:34;2.93;;;0.80;;
22415;SDS011;12204;50.600;4.608;2023-03-14T14:01:37;1.55;;;0.60;;
22415;SDS011;12204;50.600;4.608;2023-03-14T14:06:45;3.15;;;0.70;;
22415;SDS011;12204;50.600;4.608;2023-03-14T14:11:53;2.30;;;0.70;;
22415;SDS011;12204;50.600;4.608;2023-03-14T14:17:17;3.22;;;0.80;;
22415;SDS011;12204;50.600;4.608;2023-03-14T14:22:26;2.65;;;0.65;;
22415;SDS011;12204;50.600;4.608;2023-03-14T14:27:33;2.42;;;0.70;;
22415;SDS011;12204;50.600;4.608;2023-03-14T14:32:40;1.95;;;0.70;;
22415;SDS011;12204;50.600;4.608;2023-03-14T14:37:45;1.85;;;0.68;;
22415;SDS011;12204;50.600;4.608;2023-03-14T14:42:49;1.83;;;0.60;;
22415;SDS011;12204;50.600;4.608;2023-03-14T14:47:53;1.45;;;0.63;;
22415;SDS011;12204;50.600;4.608;2023-03-14T14:53:21;2.05;;;0.70;;
22415;SDS011;12204;50.600;4.608;2023-03-14T14:58:30;2.13;;;0.80;;
22415;SDS011;12204;50.600;4.608;2023-03-14T15:03:41;3.45;;;0.95;;
22415;SDS011;12204;50.600;4.608;2023-03-14T15:08:48;2.40;;;0.60;;
22415;SDS011;12204;50.600;4.608;2023-03-14T15:13:52;2.58;;;0.80;;
22415;SDS011;12204;50.600;4.608;2023-03-14T15:18:57;3.53;;;0.93;;
22415;SDS011;12204;50.600;4.608;2023-03-14T15:24:16;2.03;;;0.70;;
22415;SDS011;12204;50.600;4.608;2023-03-14T15:29:19;2.88;;;0.80;;
22415;SDS011;12204;50.600;4.608;2023-03-14T15:34:23;2.47;;;0.88;;
22415;SDS011;12204;50.600;4.608;2023-03-14T15:39:28;1.63;;;0.70;;
22415;SDS011;12204;50.600;4.608;2023-03-14T15:44:31;3.65;;;1.08;;
22415;SDS011;12204;50.600;4.608;2023-03-14T15:49:34;2.05;;;0.60;;
22415;SDS011;12204;50.600;4.608;2023-03-14T15:54:39;3.38;;;1.00;;
22415;SDS011;12204;50.600;4.608;2023-03-14T15:59:43;1.80;;;0.60;;
22415;SDS011;12204;50.600;4.608;2023-03-14T16:04:47;2.33;;;0.70;;
22415;SDS011;12204;50.600;4.608;2023-03-14T16:09:52;2.90;;;0.70;;
22415;SDS011;12204;50.600;4.608;2023-03-14T16:14:56;2.95;;;0.70;;
22415;SDS011;12204;50.600;4.608;2023-03-14T16:19:59;2.55;;;0.80;;
22415;SDS011;12204;50.600;4.608;2023-03-14T16:25:07;2.40;;;0.70;;
22415;SDS011;12204;50.600;4.608;2023-03-14T16:30:12;2.57;;;0.70;;
22415;SDS011;12204;50.600;4.608;2023-03-14T16:35:16;2.05;;;0.70;;
22415;SDS011;12204;50.600;4.608;2023-03-14T16:40:21;2.25;;;0.70;;
22415;SDS011;12204;50.600;4.608;2023-03-14T16:45:25;2.17;;;0.60;;
22415;SDS011;12204;50.600;4.608;2023-03-14T16:50:28;1.85;;;0.70;;
22415;SDS011;12204;50.600;4.608;2023-03-14T16:55:33;3.33;;;0.85;;
22415;SDS011;12204;50.600;4.608;2023-03-14T17:00:37;2.55;;;0.70;;
22415;SDS011;12204;50.600;4.608;2023-03-14T17:05:43;2.05;;;0.60;;
22415;SDS011;12204;50.600;4.608;2023-03-14T17:10:49;2.53;;;0.60;;
22415;SDS011;12204;50.600;4.608;2023-03-14T17:15:54;2.38;;;0.73;;
22415;SDS011;12204;50.600;4.608;2023-03-14T17:21:00;1.35;;;0.50;;
22415;SDS011;12204;50.600;4.608;2023-03-14T17:26:06;2.08;;;0.65;;
22415;SDS011;12204;50.600;4.608;2023-03-14T17:31:11;1.33;;;0.70;;
22415;SDS011;12204;50.600;4.608;2023-03-14T17:36:19;2.70;;;0.70;;
22415;SDS011;12204;50.600;4.608;2023-03-14T17:41:28;2.20;;;0.70;;
22415;SDS011;12204;50.600;4.608;2023-03-14T17:46:31;2.63;;;0.70;;
22415;SDS011;12204;50.600;4.608;2023-03-14T17:51:35;2.63;;;0.90;;
22415;SDS011;12204;50.600;4.608;2023-03-14T17:56:39;1.58;;;0.60;;
22415;SDS011;12204;50.600;4.608;2023-03-14T18:01:44;1.55;;;0.55;;
22415;SDS011;12204;50.600;4.608;2023-03-14T18:06:47;2.13;;;0.70;;
22415;SDS011;12204;50.600;4.608;2023-03-14T18:11:52;1.40;;;0.60;;
22415;SDS011;12204;50.600;4.608;2023-03-14T18:17:08;3.20;;;0.80;;
22415;SDS011;12204;50.600;4.608;2023-03-14T18:22:13;3.03;;;0.75;;
22415;SDS011;12204;50.600;4.608;2023-03-14T18:27:18;2.63;;;0.90;;
22415;SDS011;12204;50.600;4.608;2023-03-14T18:32:22;1.98;;;0.70;;
22415;SDS011;12204;50.600;4.608;2023-03-14T18:37:25;2.40;;;0.90;;
22415;SDS011;12204;50.600;4.608;2023-03-14T18:42:30;3.45;;;0.90;;
22415;SDS011;12204;50.600;4.608;2023-03-14T18:47:34;1.98;;;0.90;;
22415;SDS011;12204;50.600;4.608;2023-03-14T18:52:38;3.15;;;1.00;;
22415;SDS011;12204;50.600;4.608;2023-03-14T19:03:07;2.85;;;0.95;;
22415;SDS011;12204;50.600;4.608;2023-03-14T19:08:11;3.88;;;1.02;;
22415;SDS011;12204;50.600;4.608;2023-03-14T19:13:16;3.88;;;1.10;;
22415;SDS011;12204;50.600;4.608;2023-03-14T19:18:20;2.83;;;1.00;;
22415;SDS011;12204;50.600;4.608;2023-03-14T19:23:24;3.75;;;1.10;;
22415;SDS011;12204;50.600;4.608;2023-03-14T19:28:29;4.65;;;1.20;;
22415;SDS011;12204;50.600;4.608;2023-03-14T19:33:33;2.97;;;1.00;;
22415;SDS011;12204;50.600;4.608;2023-03-14T19:38:37;5.25;;;1.27;;
22415;SDS011;12204;50.600;4.608;2023-03-14T19:43:42;3.63;;;1.20;;
22415;SDS011;12204;50.600;4.608;2023-03-14T19:48:45;2.47;;;1.00;;
22415;SDS011;12204;50.600;4.608;2023-03-14T19:53:49;4.22;;;1.30;;
22415;SDS011;12204;50.600;4.608;2023-03-14T19:58:55;4.57;;;1.20;;
22415;SDS011;12204;50.600;4.608;2023-03-14T20:03:59;4.30;;;1.33;;
22415;SDS011;12204;50.600;4.608;2023-03-14T20:09:05;4.03;;;1.40;;
22415;SDS011;12204;50.600;4.608;2023-03-14T20:14:12;4.72;;;1.52;;
22415;SDS011;12204;50.600;4.608;2023-03-14T20:19:16;3.97;;;1.40;;
22415;SDS011;12204;50.600;4.608;2023-03-14T20:24:20;2.97;;;1.20;;
22415;SDS011;12204;50.600;4.608;2023-03-14T20:29:25;3.95;;;1.30;;
22415;SDS011;12204;50.600;4.608;2023-03-14T20:34:28;4.13;;;1.48;;
22415;SDS011;12204;50.600;4.608;2023-03-14T20:39:34;4.65;;;1.38;;
22415;SDS011;12204;50.600;4.608;2023-03-14T20:44:39;3.78;;;1.30;;
22415;SDS011;12204;50.600;4.608;2023-03-14T20:49:43;5.40;;;1.83;;
22415;SDS011;12204;50.600;4.608;2023-03-14T20:54:46;3.83;;;1.38;;
22415;SDS011;12204;50.600;4.608;2023-03-14T20:59:51;3.85;;;1.50;;
22415;SDS011;12204;50.600;4.608;2023-03-14T21:04:55;5.47;;;1.80;;
22415;SDS011;12204;50.600;4.608;2023-03-14T21:09:59;5.00;;;1.77;;
22415;SDS011;12204;50.600;4.608;2023-03-14T21:15:05;4.18;;;1.60;;
22415;SDS011;12204;50.600;4.608;2023-03-14T21:20:14;3.55;;;1.42;;
22415;SDS011;12204;50.600;4.608;2023-03-14T21:25:18;4.32;;;1.50;;
22415;SDS011;12204;50.600;4.608;2023-03-14T21:30:23;4.32;;;1.70;;
22415;SDS011;12204;50.600;4.608;2023-03-14T21:35:26;4.35;;;1.80;;
22415;SDS011;12204;50.600;4.608;2023-03-14T21:40:31;4.40;;;1.70;;
22415;SDS011;12204;50.600;4.608;2023-03-14T21:45:36;5.45;;;1.70;;
22415;SDS011;12204;50.600;4.608;2023-03-14T21:50:39;5.05;;;1.80;;
22415;SDS011;12204;50.600;4.608;2023-03-14T21:55:44;4.85;;;1.70;;
22415;SDS011;12204;50.600;4.608;2023-03-14T22:00:50;4.63;;;1.88;;
22415;SDS011;12204;50.600;4.608;2023-03-14T22:05:55;6.78;;;1.90;;
22415;SDS011;12204;50.600;4.608;2023-03-14T22:10:58;5.63;;;2.13;;
22415;SDS011;12204;50.600;4.608;2023-03-14T22:16:03;5.45;;;2.08;;
22415;SDS011;12204;50.600;4.608;2023-03-14T22:21:09;5.57;;;2.15;;
22415;SDS011;12204;50.600;4.608;2023-03-14T22:26:12;5.80;;;2.05;;
22415;SDS011;12204;50.600;4.608;2023-03-14T22:31:17;6.85;;;2.10;;
22415;SDS011;12204;50.600;4.608;2023-03-14T22:36:21;5.65;;;1.80;;
22415;SDS011;12204;50.600;4.608;2023-03-14T22:41:24;5.13;;;2.05;;
22415;SDS011;12204;50.600;4.608;2023-03-14T22:46:29;5.00;;;2.00;;
22415;SDS011;12204;50.600;4.608;2023-03-14T22:51:32;5.30;;;2.25;;
22415;SDS011;12204;50.600;4.608;2023-03-14T22:56:36;5.82;;;2.15;;
22415;SDS011;12204;50.600;4.608;2023-03-14T23:01:41;5.80;;;2.25;;
22415;SDS011;12204;50.600;4.608;2023-03-14T23:06:44;5.00;;;2.17;;
22415;SDS011;12204;50.600;4.608;2023-03-14T23:11:48;4.97;;;2.22;;
22415;SDS011;12204;50.600;4.608;2023-03-14T23:16:53;5.60;;;2.40;;
22415;SDS011;12204;50.600;4.608;2023-03-14T23:21:57;6.13;;;2.50;;
22415;SDS011;12204;50.600;4.608;2023-03-14T23:27:00;5.82;;;2.40;;
22415;SDS011;12204;50.600;4.608;2023-03-14T23:32:05;6.28;;;2.58;;
22415;SDS011;12204;50.600;4.608;2023-03-14T23:37:09;5.57;;;2.40;;
22415;SDS011;12204;50.600;4.608;2023-03-14T23:42:14;5.68;;;2.47;;
22415;SDS011;12204;50.600;4.608;2023-03-14T23:47:19;6.72;;;2.58;;
22415;SDS011;12204;50.600;4.608;2023-03-14T23:52:22;6.78;;;2.80;;
22415;SDS011;12204;50.600;4.608;2023-03-14T23:57:26;6.35;;;2.60;;
